sensor_id;sensor_type;location;lat;lon;timestamp;P1;durP1;ratioP1;P2;durP2;ratioP2
48205;SDS011;33995;48.202;16.260;2022-11-14T00:00:51;58.50;;;38.93;;
48205;SDS011;33995;48.202;16.260;2022-11-14T00:03:40;52.77;;;36.90;;
48205;SDS011;33995;48.202;16.260;2022-11-14T00:06:32;53.40;;;37.10;;
48205;SDS011;33995;48.202;16.260;2022-11-14T00:09:26;54.33;;;38.10;;
48205;SDS011;33995;48.202;16.260;2022-11-14T00:12:17;52.80;;;37.40;;
48205;SDS011;33995;48.202;16.260;2022-11-14T00:15:04;53.80;;;37.90;;
48205;SDS011;33995;48.202;16.260;2022-11-14T00:17:53;52.90;;;37.50;;
48205;SDS011;33995;48.202;16.260;2022-11-14T00:20:40;52.10;;;37.80;;
48205;SDS011;33995;48.202;16.260;2022-11-14T00:23:27;52.67;;;37.67;;
48205;SDS011;33995;48.202;16.260;2022-11-14T00:26:15;51.70;;;36.57;;
48205;SDS011;33995;48.202;16.260;2022-11-14T00:29:02;50.23;;;37.67;;
48205;SDS011;33995;48.202;16.260;2022-11-14T00:31:49;52.27;;;38.47;;
48205;SDS011;33995;48.202;16.260;2022-11-14T00:34:36;49.97;;;35.60;;
48205;SDS011;33995;48.202;16.260;2022-11-14T00:37:24;51.83;;;37.10;;
48205;SDS011;33995;48.202;16.260;2022-11-14T00:40:12;46.50;;;35.63;;
48205;SDS011;33995;48.202;16.260;2022-11-14T00:43:01;51.53;;;36.87;;
48205;SDS011;33995;48.202;16.260;2022-11-14T00:45:49;46.67;;;35.27;;
48205;SDS011;33995;48.202;16.260;2022-11-14T00:48:40;50.67;;;36.50;;
48205;SDS011;33995;48.202;16.260;2022-11-14T00:51:30;48.60;;;35.73;;
48205;SDS011;33995;48.202;16.260;2022-11-14T00:54:21;50.03;;;36.13;;
48205;SDS011;33995;48.202;16.260;2022-11-14T00:57:07;47.53;;;35.87;;
48205;SDS011;33995;48.202;16.260;2022-11-14T00:59:59;50.87;;;36.13;;
48205;SDS011;33995;48.202;16.260;2022-11-14T01:02:48;47.17;;;35.30;;
48205;SDS011;33995;48.202;16.260;2022-11-14T01:05:46;49.10;;;36.67;;
48205;SDS011;33995;48.202;16.260;2022-11-14T01:08:35;46.27;;;35.43;;
48205;SDS011;33995;48.202;16.260;2022-11-14T01:11:25;49.37;;;35.93;;
48205;SDS011;33995;48.202;16.260;2022-11-14T01:14:12;46.57;;;34.50;;
48205;SDS011;33995;48.202;16.260;2022-11-14T01:17:00;46.67;;;35.77;;
48205;SDS011;33995;48.202;16.260;2022-11-14T01:19:48;47.07;;;35.30;;
48205;SDS011;33995;48.202;16.260;2022-11-14T01:22:36;48.73;;;34.93;;
48205;SDS011;33995;48.202;16.260;2022-11-14T01:25:24;49.10;;;36.47;;
48205;SDS011;33995;48.202;16.260;2022-11-14T01:28:14;48.60;;;35.87;;
48205;SDS011;33995;48.202;16.260;2022-11-14T01:31:23;45.83;;;35.07;;
48205;SDS011;33995;48.202;16.260;2022-11-14T01:34:10;43.27;;;34.27;;
48205;SDS011;33995;48.202;16.260;2022-11-14T01:37:01;43.37;;;34.27;;
48205;SDS011;33995;48.202;16.260;2022-11-14T01:39:51;44.80;;;34.87;;
48205;SDS011;33995;48.202;16.260;2022-11-14T01:42:40;44.33;;;34.00;;
48205;SDS011;33995;48.202;16.260;2022-11-14T01:49:14;46.53;;;35.00;;
48205;SDS011;33995;48.202;16.260;2022-11-14T01:52:30;45.30;;;34.03;;
48205;SDS011;33995;48.202;16.260;2022-11-14T01:55:23;45.37;;;34.60;;
48205;SDS011;33995;48.202;16.260;2022-11-14T01:58:13;44.43;;;33.70;;
48205;SDS011;33995;48.202;16.260;2022-11-14T02:01:03;46.47;;;35.13;;
48205;SDS011;33995;48.202;16.260;2022-11-14T02:03:50;47.13;;;35.73;;
48205;SDS011;33995;48.202;16.260;2022-11-14T02:06:54;46.10;;;35.43;;
48205;SDS011;33995;48.202;16.260;2022-11-14T02:09:48;46.47;;;35.00;;
48205;SDS011;33995;48.202;16.260;2022-11-14T02:12:34;44.60;;;34.27;;
48205;SDS011;33995;48.202;16.260;2022-11-14T02:15:24;41.73;;;33.07;;
48205;SDS011;33995;48.202;16.260;2022-11-14T02:18:12;44.67;;;34.63;;
48205;SDS011;33995;48.202;16.260;2022-11-14T02:21:01;45.97;;;34.13;;
48205;SDS011;33995;48.202;16.260;2022-11-14T02:23:51;43.63;;;34.50;;
48205;SDS011;33995;48.202;16.260;2022-11-14T02:26:40;45.67;;;35.00;;
48205;SDS011;33995;48.202;16.260;2022-11-14T02:29:29;43.73;;;34.97;;
48205;SDS011;33995;48.202;16.260;2022-11-14T02:32:20;46.50;;;35.10;;
48205;SDS011;33995;48.202;16.260;2022-11-14T02:35:11;42.77;;;34.17;;
48205;SDS011;33995;48.202;16.260;2022-11-14T02:38:01;50.90;;;36.30;;
48205;SDS011;33995;48.202;16.260;2022-11-14T02:40:49;46.87;;;34.90;;
48205;SDS011;33995;48.202;16.260;2022-11-14T02:43:37;46.47;;;35.27;;
48205;SDS011;33995;48.202;16.260;2022-11-14T02:46:27;48.53;;;36.60;;
48205;SDS011;33995;48.202;16.260;2022-11-14T02:49:18;47.57;;;36.03;;
48205;SDS011;33995;48.202;16.260;2022-11-14T02:52:06;45.73;;;35.37;;
48205;SDS011;33995;48.202;16.260;2022-11-14T02:54:57;48.43;;;36.37;;
48205;SDS011;33995;48.202;16.260;2022-11-14T02:57:45;47.73;;;35.90;;
48205;SDS011;33995;48.202;16.260;2022-11-14T03:00:34;47.27;;;36.27;;
48205;SDS011;33995;48.202;16.260;2022-11-14T03:03:44;48.53;;;34.97;;
48205;SDS011;33995;48.202;16.260;2022-11-14T03:06:33;47.40;;;35.57;;
48205;SDS011;33995;48.202;16.260;2022-11-14T03:09:24;43.33;;;33.40;;
48205;SDS011;33995;48.202;16.260;2022-11-14T03:12:10;43.27;;;32.60;;
48205;SDS011;33995;48.202;16.260;2022-11-14T03:15:08;44.17;;;33.80;;
48205;SDS011;33995;48.202;16.260;2022-11-14T03:18:02;43.60;;;33.47;;
48205;SDS011;33995;48.202;16.260;2022-11-14T03:20:51;46.80;;;34.60;;
48205;SDS011;33995;48.202;16.260;2022-11-14T03:23:40;45.03;;;34.43;;
48205;SDS011;33995;48.202;16.260;2022-11-14T03:26:30;43.50;;;34.40;;
48205;SDS011;33995;48.202;16.260;2022-11-14T03:29:18;48.20;;;35.50;;
48205;SDS011;33995;48.202;16.260;2022-11-14T03:32:06;43.33;;;34.43;;
48205;SDS011;33995;48.202;16.260;2022-11-14T03:34:55;47.67;;;35.70;;
48205;SDS011;33995;48.202;16.260;2022-11-14T03:37:43;49.53;;;35.93;;
48205;SDS011;33995;48.202;16.260;2022-11-14T03:40:32;44.70;;;34.67;;
48205;SDS011;33995;48.202;16.260;2022-11-14T03:43:23;46.83;;;35.33;;
48205;SDS011;33995;48.202;16.260;2022-11-14T03:46:11;46.30;;;34.63;;
48205;SDS011;33995;48.202;16.260;2022-11-14T03:49:00;49.03;;;35.37;;
48205;SDS011;33995;48.202;16.260;2022-11-14T03:51:47;44.67;;;34.40;;
48205;SDS011;33995;48.202;16.260;2022-11-14T03:54:37;45.10;;;34.63;;
48205;SDS011;33995;48.202;16.260;2022-11-14T03:57:26;48.30;;;35.77;;
48205;SDS011;33995;48.202;16.260;2022-11-14T04:00:14;46.60;;;35.67;;
48205;SDS011;33995;48.202;16.260;2022-11-14T04:03:17;45.67;;;35.63;;
48205;SDS011;33995;48.202;16.260;2022-11-14T04:06:08;46.13;;;34.50;;
48205;SDS011;33995;48.202;16.260;2022-11-14T04:08:57;48.20;;;35.90;;
48205;SDS011;33995;48.202;16.260;2022-11-14T04:11:47;47.03;;;36.00;;
48205;SDS011;33995;48.202;16.260;2022-11-14T04:14:36;49.90;;;35.77;;
48205;SDS011;33995;48.202;16.260;2022-11-14T04:17:28;47.23;;;36.53;;
48205;SDS011;33995;48.202;16.260;2022-11-14T04:20:25;47.27;;;34.60;;
48205;SDS011;33995;48.202;16.260;2022-11-14T04:23:14;49.77;;;35.80;;
48205;SDS011;33995;48.202;16.260;2022-11-14T04:26:05;45.50;;;34.93;;
48205;SDS011;33995;48.202;16.260;2022-11-14T04:28:54;45.57;;;35.83;;
48205;SDS011;33995;48.202;16.260;2022-11-14T04:31:41;47.80;;;35.23;;
48205;SDS011;33995;48.202;16.260;2022-11-14T04:34:31;45.70;;;33.80;;
48205;SDS011;33995;48.202;16.260;2022-11-14T04:37:18;47.80;;;35.47;;
48205;SDS011;33995;48.202;16.260;2022-11-14T04:40:08;49.60;;;35.17;;
48205;SDS011;33995;48.202;16.260;2022-11-14T04:42:57;47.73;;;35.63;;
48205;SDS011;33995;48.202;16.260;2022-11-14T04:45:46;47.10;;;35.20;;
48205;SDS011;33995;48.202;16.260;2022-11-14T04:48:33;45.60;;;35.00;;
48205;SDS011;33995;48.202;16.260;2022-11-14T04:51:23;47.93;;;35.20;;
48205;SDS011;33995;48.202;16.260;2022-11-14T04:54:11;53.33;;;37.20;;
48205;SDS011;33995;48.202;16.260;2022-11-14T04:57:08;47.80;;;35.43;;
48205;SDS011;33995;48.202;16.260;2022-11-14T05:00:03;47.53;;;35.07;;
48205;SDS011;33995;48.202;16.260;2022-11-14T05:02:53;50.07;;;36.67;;
48205;SDS011;33995;48.202;16.260;2022-11-14T05:05:42;50.77;;;36.57;;
48205;SDS011;33995;48.202;16.260;2022-11-14T05:08:32;48.37;;;35.93;;
48205;SDS011;33995;48.202;16.260;2022-11-14T05:11:27;48.30;;;34.90;;
48205;SDS011;33995;48.202;16.260;2022-11-14T05:14:15;50.67;;;36.47;;
48205;SDS011;33995;48.202;16.260;2022-11-14T05:17:02;48.87;;;35.07;;
48205;SDS011;33995;48.202;16.260;2022-11-14T05:19:51;49.60;;;37.07;;
48205;SDS011;33995;48.202;16.260;2022-11-14T05:22:38;47.70;;;35.83;;
48205;SDS011;33995;48.202;16.260;2022-11-14T05:25:26;51.63;;;36.77;;
48205;SDS011;33995;48.202;16.260;2022-11-14T05:28:11;54.67;;;37.70;;
48205;SDS011;33995;48.202;16.260;2022-11-14T05:31:06;52.47;;;37.87;;
48205;SDS011;33995;48.202;16.260;2022-11-14T05:33:58;49.93;;;35.83;;
48205;SDS011;33995;48.202;16.260;2022-11-14T05:36:49;52.03;;;36.50;;
48205;SDS011;33995;48.202;16.260;2022-11-14T05:39:36;52.63;;;37.20;;
48205;SDS011;33995;48.202;16.260;2022-11-14T05:42:23;55.23;;;37.13;;
48205;SDS011;33995;48.202;16.260;2022-11-14T05:45:11;80.50;;;40.03;;
48205;SDS011;33995;48.202;16.260;2022-11-14T05:48:03;50.53;;;36.30;;
48205;SDS011;33995;48.202;16.260;2022-11-14T05:50:56;60.03;;;39.53;;
48205;SDS011;33995;48.202;16.260;2022-11-14T05:53:45;58.83;;;37.83;;
48205;SDS011;33995;48.202;16.260;2022-11-14T05:56:34;57.90;;;37.57;;
48205;SDS011;33995;48.202;16.260;2022-11-14T05:59:25;61.33;;;39.83;;
48205;SDS011;33995;48.202;16.260;2022-11-14T06:02:12;57.13;;;38.63;;
48205;SDS011;33995;48.202;16.260;2022-11-14T06:05:04;61.50;;;39.80;;
48205;SDS011;33995;48.202;16.260;2022-11-14T06:07:57;58.37;;;39.30;;
48205;SDS011;33995;48.202;16.260;2022-11-14T06:10:54;64.67;;;40.17;;
48205;SDS011;33995;48.202;16.260;2022-11-14T06:13:40;69.90;;;41.23;;
48205;SDS011;33995;48.202;16.260;2022-11-14T06:16:31;66.03;;;41.40;;
48205;SDS011;33995;48.202;16.260;2022-11-14T06:19:18;61.93;;;40.07;;
48205;SDS011;33995;48.202;16.260;2022-11-14T06:22:07;65.03;;;40.73;;
48205;SDS011;33995;48.202;16.260;2022-11-14T06:24:56;69.00;;;40.70;;
48205;SDS011;33995;48.202;16.260;2022-11-14T06:27:45;63.80;;;40.90;;
48205;SDS011;33995;48.202;16.260;2022-11-14T06:30:33;63.30;;;40.10;;
48205;SDS011;33995;48.202;16.260;2022-11-14T06:33:22;60.10;;;39.77;;
48205;SDS011;33995;48.202;16.260;2022-11-14T06:36:10;60.33;;;40.03;;
48205;SDS011;33995;48.202;16.260;2022-11-14T06:38:59;62.10;;;40.10;;
48205;SDS011;33995;48.202;16.260;2022-11-14T06:41:56;59.93;;;39.73;;
48205;SDS011;33995;48.202;16.260;2022-11-14T06:44:45;52.33;;;37.90;;
48205;SDS011;33995;48.202;16.260;2022-11-14T06:47:34;70.10;;;41.43;;
48205;SDS011;33995;48.202;16.260;2022-11-14T06:50:26;60.50;;;39.57;;
48205;SDS011;33995;48.202;16.260;2022-11-14T06:53:13;56.80;;;38.43;;
48205;SDS011;33995;48.202;16.260;2022-11-14T06:56:11;58.97;;;40.43;;
48205;SDS011;33995;48.202;16.260;2022-11-14T06:59:02;61.40;;;40.00;;
48205;SDS011;33995;48.202;16.260;2022-11-14T07:01:52;58.63;;;39.93;;
48205;SDS011;33995;48.202;16.260;2022-11-14T07:04:43;59.20;;;39.87;;
48205;SDS011;33995;48.202;16.260;2022-11-14T07:07:34;71.73;;;42.77;;
48205;SDS011;33995;48.202;16.260;2022-11-14T07:10:22;62.97;;;41.43;;
48205;SDS011;33995;48.202;16.260;2022-11-14T07:13:13;62.77;;;40.67;;
48205;SDS011;33995;48.202;16.260;2022-11-14T07:16:00;69.87;;;43.53;;
48205;SDS011;33995;48.202;16.260;2022-11-14T07:19:03;64.60;;;41.50;;
48205;SDS011;33995;48.202;16.260;2022-11-14T07:21:52;58.77;;;40.60;;
48205;SDS011;33995;48.202;16.260;2022-11-14T07:24:43;60.83;;;45.70;;
48205;SDS011;33995;48.202;16.260;2022-11-14T07:27:30;63.90;;;42.30;;
48205;SDS011;33995;48.202;16.260;2022-11-14T07:30:19;62.53;;;43.97;;
48205;SDS011;33995;48.202;16.260;2022-11-14T07:33:07;57.70;;;39.77;;
48205;SDS011;33995;48.202;16.260;2022-11-14T07:35:56;59.90;;;40.77;;
48205;SDS011;33995;48.202;16.260;2022-11-14T07:38:46;57.83;;;39.90;;
48205;SDS011;33995;48.202;16.260;2022-11-14T07:41:34;54.77;;;39.83;;
48205;SDS011;33995;48.202;16.260;2022-11-14T07:44:22;59.80;;;40.80;;
48205;SDS011;33995;48.202;16.260;2022-11-14T07:47:12;52.13;;;38.97;;
48205;SDS011;33995;48.202;16.260;2022-11-14T07:49:59;52.57;;;39.00;;
48205;SDS011;33995;48.202;16.260;2022-11-14T07:52:50;53.03;;;37.47;;
48205;SDS011;33995;48.202;16.260;2022-11-14T07:55:41;52.20;;;38.63;;
48205;SDS011;33995;48.202;16.260;2022-11-14T07:58:30;51.77;;;38.40;;
48205;SDS011;33995;48.202;16.260;2022-11-14T08:01:20;50.67;;;37.87;;
48205;SDS011;33995;48.202;16.260;2022-11-14T08:04:08;53.20;;;39.07;;
48205;SDS011;33995;48.202;16.260;2022-11-14T08:06:57;53.30;;;39.57;;
48205;SDS011;33995;48.202;16.260;2022-11-14T08:09:45;54.83;;;38.57;;
48205;SDS011;33995;48.202;16.260;2022-11-14T08:12:35;54.03;;;38.83;;
48205;SDS011;33995;48.202;16.260;2022-11-14T08:15:37;54.60;;;40.80;;
48205;SDS011;33995;48.202;16.260;2022-11-14T08:18:26;50.23;;;37.40;;
48205;SDS011;33995;48.202;16.260;2022-11-14T08:21:15;50.60;;;38.03;;
48205;SDS011;33995;48.202;16.260;2022-11-14T08:24:03;50.30;;;37.97;;
48205;SDS011;33995;48.202;16.260;2022-11-14T08:26:53;50.27;;;38.07;;
48205;SDS011;33995;48.202;16.260;2022-11-14T08:29:39;51.43;;;38.50;;
48205;SDS011;33995;48.202;16.260;2022-11-14T08:32:29;47.20;;;36.53;;
48205;SDS011;33995;48.202;16.260;2022-11-14T08:35:33;47.50;;;37.97;;
48205;SDS011;33995;48.202;16.260;2022-11-14T08:38:23;51.53;;;38.20;;
48205;SDS011;33995;48.202;16.260;2022-11-14T08:41:11;50.67;;;39.07;;
48205;SDS011;33995;48.202;16.260;2022-11-14T08:43:59;50.13;;;36.80;;
48205;SDS011;33995;48.202;16.260;2022-11-14T08:46:50;46.30;;;36.50;;
48205;SDS011;33995;48.202;16.260;2022-11-14T08:49:39;46.83;;;36.50;;
48205;SDS011;33995;48.202;16.260;2022-11-14T08:52:30;47.57;;;36.70;;
48205;SDS011;33995;48.202;16.260;2022-11-14T08:55:18;48.40;;;37.17;;
48205;SDS011;33995;48.202;16.260;2022-11-14T08:58:09;52.67;;;37.63;;
48205;SDS011;33995;48.202;16.260;2022-11-14T09:00:59;46.53;;;36.27;;
48205;SDS011;33995;48.202;16.260;2022-11-14T09:03:51;47.80;;;37.23;;
48205;SDS011;33995;48.202;16.260;2022-11-14T09:06:53;47.07;;;36.07;;
48205;SDS011;33995;48.202;16.260;2022-11-14T09:09:44;46.60;;;35.90;;
48205;SDS011;33995;48.202;16.260;2022-11-14T09:12:34;48.47;;;36.80;;
48205;SDS011;33995;48.202;16.260;2022-11-14T09:15:28;44.73;;;35.37;;
48205;SDS011;33995;48.202;16.260;2022-11-14T09:18:17;45.30;;;35.57;;
48205;SDS011;33995;48.202;16.260;2022-11-14T09:21:07;44.77;;;35.20;;
48205;SDS011;33995;48.202;16.260;2022-11-14T09:23:57;45.40;;;34.47;;
48205;SDS011;33995;48.202;16.260;2022-11-14T09:26:49;44.50;;;35.23;;
48205;SDS011;33995;48.202;16.260;2022-11-14T09:29:44;41.83;;;34.00;;
48205;SDS011;33995;48.202;16.260;2022-11-14T09:32:35;41.13;;;33.97;;
48205;SDS011;33995;48.202;16.260;2022-11-14T09:35:27;43.10;;;34.27;;
48205;SDS011;33995;48.202;16.260;2022-11-14T09:38:14;44.03;;;35.13;;
48205;SDS011;33995;48.202;16.260;2022-11-14T09:47:38;39.73;;;33.00;;
48205;SDS011;33995;48.202;16.260;2022-11-14T09:50:47;38.03;;;31.63;;
48205;SDS011;33995;48.202;16.260;2022-11-14T09:53:55;38.07;;;31.80;;
48205;SDS011;33995;48.202;16.260;2022-11-14T09:57:18;36.67;;;31.10;;
48205;SDS011;33995;48.202;16.260;2022-11-14T10:00:21;34.93;;;30.53;;
48205;SDS011;33995;48.202;16.260;2022-11-14T10:06:19;32.27;;;28.60;;
48205;SDS011;33995;48.202;16.260;2022-11-14T10:26:26;28.07;;;23.87;;
48205;SDS011;33995;48.202;16.260;2022-11-14T10:35:59;24.43;;;20.30;;
48205;SDS011;33995;48.202;16.260;2022-11-14T10:39:20;21.43;;;19.33;;
48205;SDS011;33995;48.202;16.260;2022-11-14T10:42:38;22.23;;;20.00;;
48205;SDS011;33995;48.202;16.260;2022-11-14T10:45:40;22.57;;;20.17;;
48205;SDS011;33995;48.202;16.260;2022-11-14T10:48:34;21.73;;;19.53;;
48205;SDS011;33995;48.202;16.260;2022-11-14T10:51:40;21.30;;;18.90;;
48205;SDS011;33995;48.202;16.260;2022-11-14T10:54:49;23.57;;;20.00;;
48205;SDS011;33995;48.202;16.260;2022-11-14T10:57:46;21.97;;;19.73;;
48205;SDS011;33995;48.202;16.260;2022-11-14T11:00:51;23.67;;;21.07;;
48205;SDS011;33995;48.202;16.260;2022-11-14T11:03:42;22.97;;;20.67;;
48205;SDS011;33995;48.202;16.260;2022-11-14T11:06:30;21.47;;;19.37;;
48205;SDS011;33995;48.202;16.260;2022-11-14T11:09:28;21.67;;;19.53;;
48205;SDS011;33995;48.202;16.260;2022-11-14T11:12:49;23.67;;;21.27;;
48205;SDS011;33995;48.202;16.260;2022-11-14T11:15:41;25.27;;;20.30;;
48205;SDS011;33995;48.202;16.260;2022-11-14T11:18:35;23.03;;;20.63;;
48205;SDS011;33995;48.202;16.260;2022-11-14T11:21:25;20.70;;;18.63;;
48205;SDS011;33995;48.202;16.260;2022-11-14T11:24:35;20.77;;;18.73;;
48205;SDS011;33995;48.202;16.260;2022-11-14T11:27:26;20.23;;;18.17;;
48205;SDS011;33995;48.202;16.260;2022-11-14T11:30:20;19.73;;;17.83;;
48205;SDS011;33995;48.202;16.260;2022-11-14T11:33:23;20.60;;;18.57;;
48205;SDS011;33995;48.202;16.260;2022-11-14T11:36:22;20.83;;;18.73;;
48205;SDS011;33995;48.202;16.260;2022-11-14T11:39:19;20.53;;;18.40;;
48205;SDS011;33995;48.202;16.260;2022-11-14T11:42:35;22.13;;;19.93;;
48205;SDS011;33995;48.202;16.260;2022-11-14T11:46:13;22.17;;;19.87;;
48205;SDS011;33995;48.202;16.260;2022-11-14T11:56:20;22.60;;;20.20;;
48205;SDS011;33995;48.202;16.260;2022-11-14T12:02:34;21.53;;;19.33;;
48205;SDS011;33995;48.202;16.260;2022-11-14T12:05:39;23.13;;;20.37;;
48205;SDS011;33995;48.202;16.260;2022-11-14T12:12:05;22.37;;;20.07;;
48205;SDS011;33995;48.202;16.260;2022-11-14T12:18:43;23.77;;;21.27;;
48205;SDS011;33995;48.202;16.260;2022-11-14T12:22:16;24.13;;;20.77;;
48205;SDS011;33995;48.202;16.260;2022-11-14T12:32:04;23.60;;;21.20;;
48205;SDS011;33995;48.202;16.260;2022-11-14T12:34:56;23.63;;;21.13;;
48205;SDS011;33995;48.202;16.260;2022-11-14T12:37:50;23.17;;;20.60;;
48205;SDS011;33995;48.202;16.260;2022-11-14T12:40:52;22.17;;;19.87;;
48205;SDS011;33995;48.202;16.260;2022-11-14T12:43:47;23.57;;;21.17;;
48205;SDS011;33995;48.202;16.260;2022-11-14T12:47:22;23.07;;;20.57;;
48205;SDS011;33995;48.202;16.260;2022-11-14T12:52:47;23.77;;;21.17;;
48205;SDS011;33995;48.202;16.260;2022-11-14T13:19:12;27.60;;;24.70;;
48205;SDS011;33995;48.202;16.260;2022-11-14T13:22:35;27.03;;;24.13;;
48205;SDS011;33995;48.202;16.260;2022-11-14T13:25:33;29.50;;;25.27;;
48205;SDS011;33995;48.202;16.260;2022-11-14T13:31:44;28.67;;;24.70;;
48205;SDS011;33995;48.202;16.260;2022-11-14T13:34:49;28.60;;;25.17;;
48205;SDS011;33995;48.202;16.260;2022-11-14T13:51:34;28.80;;;25.13;;
48205;SDS011;33995;48.202;16.260;2022-11-14T13:54:29;29.23;;;25.83;;
48205;SDS011;33995;48.202;16.260;2022-11-14T13:57:24;30.53;;;26.13;;
48205;SDS011;33995;48.202;16.260;2022-11-14T14:04:52;31.03;;;26.60;;
48205;SDS011;33995;48.202;16.260;2022-11-14T14:14:20;32.07;;;28.33;;
48205;SDS011;33995;48.202;16.260;2022-11-14T14:17:29;34.67;;;29.37;;
48205;SDS011;33995;48.202;16.260;2022-11-14T14:23:43;32.80;;;27.57;;
48205;SDS011;33995;48.202;16.260;2022-11-14T14:30:12;37.37;;;29.90;;
48205;SDS011;33995;48.202;16.260;2022-11-14T14:36:02;34.40;;;29.87;;
48205;SDS011;33995;48.202;16.260;2022-11-14T14:39:05;34.47;;;28.80;;
48205;SDS011;33995;48.202;16.260;2022-11-14T14:42:09;34.43;;;29.93;;
48205;SDS011;33995;48.202;16.260;2022-11-14T14:44:57;35.47;;;29.37;;
48205;SDS011;33995;48.202;16.260;2022-11-14T14:48:11;34.67;;;29.03;;
48205;SDS011;33995;48.202;16.260;2022-11-14T14:51:02;37.30;;;31.30;;
48205;SDS011;33995;48.202;16.260;2022-11-14T14:53:52;36.43;;;30.30;;
48205;SDS011;33995;48.202;16.260;2022-11-14T14:56:50;36.20;;;30.63;;
48205;SDS011;33995;48.202;16.260;2022-11-14T14:59:43;38.03;;;30.63;;
48205;SDS011;33995;48.202;16.260;2022-11-14T15:02:29;39.40;;;31.97;;
48205;SDS011;33995;48.202;16.260;2022-11-14T15:05:27;36.97;;;31.03;;
48205;SDS011;33995;48.202;16.260;2022-11-14T15:08:30;38.67;;;32.07;;
48205;SDS011;33995;48.202;16.260;2022-11-14T15:11:23;38.07;;;29.97;;
48205;SDS011;33995;48.202;16.260;2022-11-14T15:14:20;38.80;;;32.20;;
48205;SDS011;33995;48.202;16.260;2022-11-14T15:17:14;37.53;;;30.07;;
48205;SDS011;33995;48.202;16.260;2022-11-14T15:20:03;37.53;;;30.27;;
48205;SDS011;33995;48.202;16.260;2022-11-14T15:26:17;37.53;;;31.20;;
48205;SDS011;33995;48.202;16.260;2022-11-14T15:29:18;39.03;;;30.57;;
48205;SDS011;33995;48.202;16.260;2022-11-14T15:32:20;39.33;;;30.83;;
48205;SDS011;33995;48.202;16.260;2022-11-14T15:41:23;40.23;;;31.57;;
48205;SDS011;33995;48.202;16.260;2022-11-14T15:44:30;38.80;;;31.77;;
48205;SDS011;33995;48.202;16.260;2022-11-14T15:47:31;41.20;;;33.00;;
48205;SDS011;33995;48.202;16.260;2022-11-14T15:50:32;41.77;;;34.33;;
48205;SDS011;33995;48.202;16.260;2022-11-14T15:53:23;40.67;;;32.50;;
48205;SDS011;33995;48.202;16.260;2022-11-14T15:56:13;42.83;;;33.87;;
48205;SDS011;33995;48.202;16.260;2022-11-14T15:59:16;43.17;;;33.90;;
48205;SDS011;33995;48.202;16.260;2022-11-14T16:05:10;44.07;;;33.80;;
48205;SDS011;33995;48.202;16.260;2022-11-14T16:08:00;44.23;;;34.67;;
48205;SDS011;33995;48.202;16.260;2022-11-14T16:10:48;42.93;;;34.50;;
48205;SDS011;33995;48.202;16.260;2022-11-14T16:13:38;44.73;;;34.90;;
48205;SDS011;33995;48.202;16.260;2022-11-14T16:16:29;44.40;;;35.23;;
48205;SDS011;33995;48.202;16.260;2022-11-14T16:19:16;44.10;;;35.43;;
48205;SDS011;33995;48.202;16.260;2022-11-14T16:22:07;47.57;;;37.07;;
48205;SDS011;33995;48.202;16.260;2022-11-14T16:25:00;46.60;;;36.70;;
48205;SDS011;33995;48.202;16.260;2022-11-14T16:27:48;44.80;;;36.30;;
48205;SDS011;33995;48.202;16.260;2022-11-14T16:30:38;51.17;;;38.73;;
48205;SDS011;33995;48.202;16.260;2022-11-14T16:33:27;46.67;;;36.43;;
48205;SDS011;33995;48.202;16.260;2022-11-14T16:36:16;47.33;;;37.47;;
48205;SDS011;33995;48.202;16.260;2022-11-14T16:39:08;47.60;;;38.17;;
48205;SDS011;33995;48.202;16.260;2022-11-14T16:42:03;45.17;;;36.00;;
48205;SDS011;33995;48.202;16.260;2022-11-14T16:44:57;46.40;;;36.43;;
48205;SDS011;33995;48.202;16.260;2022-11-14T16:47:48;47.53;;;36.17;;
48205;SDS011;33995;48.202;16.260;2022-11-14T16:50:38;46.50;;;35.33;;
48205;SDS011;33995;48.202;16.260;2022-11-14T16:53:28;46.23;;;36.33;;
48205;SDS011;33995;48.202;16.260;2022-11-14T16:56:18;48.20;;;36.77;;
48205;SDS011;33995;48.202;16.260;2022-11-14T16:59:05;48.10;;;37.20;;
48205;SDS011;33995;48.202;16.260;2022-11-14T17:01:56;46.47;;;36.73;;
48205;SDS011;33995;48.202;16.260;2022-11-14T17:04:44;47.27;;;37.40;;
48205;SDS011;33995;48.202;16.260;2022-11-14T17:07:37;50.47;;;37.73;;
48205;SDS011;33995;48.202;16.260;2022-11-14T17:10:28;48.23;;;36.63;;
48205;SDS011;33995;48.202;16.260;2022-11-14T17:13:19;50.83;;;37.90;;
48205;SDS011;33995;48.202;16.260;2022-11-14T17:16:13;53.60;;;40.50;;
48205;SDS011;33995;48.202;16.260;2022-11-14T17:19:05;50.60;;;38.53;;
48205;SDS011;33995;48.202;16.260;2022-11-14T17:21:53;53.87;;;39.70;;
48205;SDS011;33995;48.202;16.260;2022-11-14T17:24:42;55.33;;;38.13;;
48205;SDS011;33995;48.202;16.260;2022-11-14T17:27:29;51.93;;;38.67;;
48205;SDS011;33995;48.202;16.260;2022-11-14T17:30:21;51.87;;;38.67;;
48205;SDS011;33995;48.202;16.260;2022-11-14T17:33:09;52.97;;;40.03;;
48205;SDS011;33995;48.202;16.260;2022-11-14T17:36:04;52.73;;;39.60;;
48205;SDS011;33995;48.202;16.260;2022-11-14T17:38:55;52.70;;;39.50;;
48205;SDS011;33995;48.202;16.260;2022-11-14T17:41:51;54.10;;;39.40;;
48205;SDS011;33995;48.202;16.260;2022-11-14T17:44:39;54.90;;;40.57;;
48205;SDS011;33995;48.202;16.260;2022-11-14T17:47:28;56.17;;;40.67;;
48205;SDS011;33995;48.202;16.260;2022-11-14T17:50:18;53.87;;;40.03;;
48205;SDS011;33995;48.202;16.260;2022-11-14T17:53:13;51.40;;;39.27;;
48205;SDS011;33995;48.202;16.260;2022-11-14T17:56:00;53.23;;;38.73;;
48205;SDS011;33995;48.202;16.260;2022-11-14T17:58:50;54.00;;;40.77;;
48205;SDS011;33995;48.202;16.260;2022-11-14T18:01:39;53.10;;;39.83;;
48205;SDS011;33995;48.202;16.260;2022-11-14T18:04:34;55.93;;;40.83;;
48205;SDS011;33995;48.202;16.260;2022-11-14T18:07:23;54.47;;;39.57;;
48205;SDS011;33995;48.202;16.260;2022-11-14T18:10:15;54.00;;;39.97;;
48205;SDS011;33995;48.202;16.260;2022-11-14T18:13:05;58.97;;;42.33;;
48205;SDS011;33995;48.202;16.260;2022-11-14T18:16:04;54.23;;;39.53;;
48205;SDS011;33995;48.202;16.260;2022-11-14T18:19:38;54.80;;;40.23;;
48205;SDS011;33995;48.202;16.260;2022-11-14T18:22:29;58.10;;;41.17;;
48205;SDS011;33995;48.202;16.260;2022-11-14T18:25:18;55.40;;;40.80;;
48205;SDS011;33995;48.202;16.260;2022-11-14T18:28:08;52.73;;;38.47;;
48205;SDS011;33995;48.202;16.260;2022-11-14T18:31:11;52.90;;;39.20;;
48205;SDS011;33995;48.202;16.260;2022-11-14T18:34:02;52.87;;;39.03;;
48205;SDS011;33995;48.202;16.260;2022-11-14T18:36:52;53.57;;;39.80;;
48205;SDS011;33995;48.202;16.260;2022-11-14T18:39:40;54.17;;;39.77;;
48205;SDS011;33995;48.202;16.260;2022-11-14T18:42:40;52.07;;;38.80;;
48205;SDS011;33995;48.202;16.260;2022-11-14T18:45:36;53.70;;;39.53;;
48205;SDS011;33995;48.202;16.260;2022-11-14T18:48:25;49.97;;;38.00;;
48205;SDS011;33995;48.202;16.260;2022-11-14T18:51:18;48.07;;;36.37;;
48205;SDS011;33995;48.202;16.260;2022-11-14T18:54:19;49.83;;;38.10;;